createdAt,value
2023-11-02T00:01:59.133Z,98190.69
2023-11-02T00:04:27.511Z,98180.47
2023-11-02T00:06:54.509Z,98171.78
2023-11-02T00:09:21.089Z,98183.22
2023-11-02T00:11:55.967Z,98196.94
2023-11-02T00:14:26.894Z,98188.28
2023-11-02T00:16:53.992Z,98188.28
2023-11-02T00:19:29.897Z,98190.59
2023-11-02T00:22:09.018Z,98189.00
2023-11-02T00:24:42.584Z,98179.56
2023-11-02T00:27:09.445Z,98175.97
2023-11-02T00:29:36.345Z,98183.78
2023-11-02T00:32:03.032Z,98174.69
2023-11-02T00:34:30.388Z,98177.84
2023-11-02T00:36:59.135Z,98178.63
2023-11-02T00:39:26.407Z,98182.56
2023-11-02T00:41:53.172Z,98187.66
2023-11-02T00:44:20.434Z,98185.34
2023-11-02T00:46:47.088Z,98177.13
2023-11-02T00:49:22.707Z,98162.97
2023-11-02T00:52:02.959Z,98165.66
2023-11-02T00:55:00.626Z,98163.66
2023-11-02T00:57:40.798Z,98157.38
2023-11-02T01:00:08.221Z,98155.06
2023-11-02T01:02:36.913Z,98159.75
2023-11-02T01:05:05.749Z,98156.59
2023-11-02T01:07:34.629Z,98154.22
2023-11-02T01:10:03.202Z,98150.31
2023-11-02T01:12:33.102Z,98150.31
2023-11-02T01:15:02.019Z,98146.00
2023-11-02T01:17:32.899Z,98148.00
2023-11-02T01:20:07.199Z,98148.00
2023-11-02T01:22:33.732Z,98146.44
2023-11-02T01:25:12.803Z,98150.78
2023-11-02T01:27:39.953Z,98142.13
2023-11-02T01:30:30.979Z,98135.81
2023-11-02T01:32:58.151Z,98136.97
2023-11-02T01:35:47.394Z,98139.34
2023-11-02T01:38:15.211Z,98125.13
2023-11-02T01:41:02.065Z,98119.66
2023-11-02T01:43:50.553Z,98125.53
2023-11-02T01:46:25.256Z,98129.13
2023-11-02T01:49:05.115Z,98123.28
2023-11-02T01:51:56.084Z,98124.88
2023-11-02T01:54:31.697Z,98121.31
2023-11-02T01:57:07.224Z,98126.38
2023-11-02T01:59:37.898Z,98123.25
2023-11-02T02:02:38.480Z,98123.25
2023-11-02T02:05:18.965Z,98113.84
2023-11-02T02:08:02.144Z,98097.38
2023-11-02T02:10:49.167Z,98088.78
2023-11-02T02:13:24.672Z,98084.88
2023-11-02T02:16:23.027Z,98084.47
2023-11-02T02:19:28.705Z,98085.25
2023-11-02T02:22:06.271Z,98064.84
2023-11-02T02:24:58.500Z,98066.03
2023-11-02T02:28:05.381Z,98070.75
2023-11-02T02:31:10.417Z,98063.31
2023-11-02T02:34:34.565Z,98059.63
2023-11-02T02:37:11.393Z,98064.72
2023-11-02T02:39:44.492Z,98063.19
2023-11-02T02:42:16.397Z,98067.91
2023-11-02T02:44:48.573Z,98066.97
2023-11-02T02:47:20.399Z,98060.56
2023-11-02T02:49:52.787Z,98054.22
2023-11-02T02:52:23.722Z,98043.94
2023-11-02T02:54:53.893Z,98036.97
2023-11-02T02:57:22.031Z,98049.56
2023-11-02T02:59:53.293Z,98049.94
2023-11-02T03:02:26.524Z,98042.53
2023-11-02T03:04:56.086Z,98029.66
2023-11-02T03:07:24.890Z,98021.84
2023-11-02T03:09:56.117Z,98036.44
2023-11-02T03:12:28.027Z,98049.72
2023-11-02T03:14:57.719Z,98058.25
2023-11-02T03:17:45.354Z,98063.25
2023-11-02T03:20:13.816Z,98067.53
2023-11-02T03:22:43.359Z,98060.56
2023-11-02T03:25:14.803Z,98065.28
2023-11-02T03:27:50.168Z,98051.97
2023-11-02T03:30:25.624Z,98057.47
2023-11-02T03:33:04.651Z,98059.84
2023-11-02T03:35:43.883Z,98053.16
2023-11-02T03:38:21.036Z,98039.44
2023-11-02T03:40:47.559Z,98036.66
2023-11-02T03:43:28.971Z,98028.44
2023-11-02T03:46:10.767Z,98028.84
2023-11-02T03:48:53.946Z,98015.53
2023-11-02T03:51:44.573Z,98012.78
2023-11-02T03:54:32.808Z,98023.00
2023-11-02T03:57:20.911Z,98025.75
2023-11-02T03:59:52.976Z,98016.31
2023-11-02T04:02:29.531Z,98002.19
2023-11-02T04:05:16.405Z,98002.19
2023-11-02T04:07:57.837Z,98000.25
2023-11-02T04:10:27.038Z,98001.81
2023-11-02T04:12:56.601Z,98000.22
2023-11-02T04:15:23.587Z,98000.56
2023-11-02T04:17:50.252Z,98001.72
2023-11-02T04:20:16.997Z,97995.47
2023-11-02T04:22:43.803Z,97996.63
2023-11-02T04:25:10.541Z,97987.66
2023-11-02T04:27:38.075Z,97985.72
2023-11-02T04:30:06.115Z,97986.09
2023-11-02T04:32:32.860Z,97988.41
2023-11-02T04:35:00.155Z,97981.75
2023-11-02T04:37:26.809Z,97985.72
2023-11-02T04:39:53.458Z,97972.38
2023-11-02T04:42:22.307Z,97967.28
2023-11-02T04:44:48.990Z,97967.66
2023-11-02T04:47:15.650Z,97967.63
2023-11-02T04:49:42.287Z,97960.47
2023-11-02T04:52:08.922Z,97957.25
2023-11-02T04:54:35.779Z,97966.31
2023-11-02T04:57:03.641Z,97968.66
2023-11-02T04:59:46.196Z,97965.53
2023-11-02T05:02:13.048Z,97965.59
2023-11-02T05:04:39.889Z,97955.34
2023-11-02T05:07:07.273Z,97944.28
2023-11-02T05:09:34.142Z,97930.91
2023-11-02T05:12:00.799Z,97925.50
2023-11-02T05:14:27.466Z,97929.78
2023-11-02T05:16:54.107Z,97934.47
2023-11-02T05:19:20.721Z,97940.78
2023-11-02T05:21:47.327Z,97938.00
2023-11-02T05:24:16.207Z,97939.19
2023-11-02T05:26:42.817Z,97929.34
2023-11-02T05:29:09.434Z,97922.97
2023-11-02T05:31:37.549Z,97924.19
2023-11-02T05:34:04.537Z,97917.53
2023-11-02T05:36:31.581Z,97910.56
2023-11-02T05:38:58.248Z,97907.44
2023-11-02T05:41:24.875Z,97911.31
2023-11-02T05:43:51.601Z,97906.66
2023-11-02T05:46:18.383Z,97905.88
2023-11-02T05:48:45.021Z,97911.41
2023-11-02T05:51:11.730Z,97901.25
2023-11-02T05:53:38.404Z,97906.34
2023-11-02T05:56:05.499Z,97905.94
2023-11-02T05:58:32.253Z,97898.47
2023-11-02T06:00:59.006Z,97897.34
2023-11-02T06:03:26.434Z,97896.56
2023-11-02T06:05:53.302Z,97898.16
2023-11-02T06:08:20.007Z,97892.72
2023-11-02T06:10:46.757Z,97891.63
2023-11-02T06:13:13.429Z,97885.03
2023-11-02T06:15:40.073Z,97873.69
2023-11-02T06:18:08.448Z,97867.44
2023-11-02T06:20:35.296Z,97867.06
2023-11-02T06:23:03.321Z,97864.75
2023-11-02T06:25:30.003Z,97871.13
2023-11-02T06:27:56.593Z,97871.13
2023-11-02T06:30:23.325Z,97862.53
2023-11-02T06:32:49.953Z,97871.19
2023-11-02T06:35:16.655Z,97870.38
2023-11-02T06:37:59.612Z,97851.94
2023-11-02T06:40:27.420Z,97855.09
2023-11-02T06:42:55.026Z,97861.75
2023-11-02T06:45:21.678Z,97860.22
2023-11-02T06:47:48.405Z,97860.19
2023-11-02T06:50:15.132Z,97855.88
2023-11-02T06:52:41.862Z,97851.13
2023-11-02T06:55:08.951Z,97856.22
2023-11-02T06:57:35.681Z,97846.81
2023-11-02T07:00:06.907Z,97854.19
2023-11-02T07:02:34.238Z,97847.06
2023-11-02T07:05:02.089Z,97844.66
2023-11-02T07:07:28.932Z,97852.47
2023-11-02T07:09:55.576Z,97850.44
2023-11-02T07:12:22.184Z,97854.28
2023-11-02T07:14:48.820Z,97848.69
2023-11-02T07:17:16.897Z,97833.31
2023-11-02T07:19:44.014Z,97821.06
2023-11-02T07:22:10.691Z,97818.53
2023-11-02T07:24:37.413Z,97794.06
2023-11-02T07:27:04.110Z,97798.66
2023-11-02T07:29:30.720Z,97797.34
2023-11-02T07:31:58.032Z,97807.06
2023-11-02T07:34:24.679Z,97802.97
2023-11-02T07:36:53.009Z,97798.94
2023-11-02T07:39:19.680Z,97796.41
2023-11-02T07:41:46.298Z,97800.19
2023-11-02T07:44:12.905Z,97804.47
2023-11-02T07:46:39.516Z,97808.66
2023-11-02T07:49:06.348Z,97810.03
2023-11-02T07:51:33.208Z,97804.72
2023-11-02T07:53:59.868Z,97800.25
2023-11-02T07:56:27.124Z,97799.66
2023-11-02T07:58:53.763Z,97796.09
2023-11-02T08:01:20.589Z,97803.81
2023-11-02T08:03:47.224Z,97792.50
2023-11-02T08:06:14.056Z,97796.75
2023-11-02T08:08:40.740Z,97776.38
2023-11-02T08:11:07.354Z,97773.03
2023-11-02T08:13:34.051Z,97768.81
2023-11-02T08:16:01.944Z,97762.28
2023-11-02T08:18:28.686Z,97748.25
2023-11-02T08:20:55.472Z,97746.13
2023-11-02T08:23:22.141Z,97741.03
2023-11-02T08:25:49.225Z,97736.03
2023-11-02T08:28:18.661Z,97739.16
2023-11-02T08:30:45.392Z,97736.44
2023-11-02T08:33:12.201Z,97730.75
2023-11-02T08:35:38.843Z,97728.09
2023-11-02T08:38:05.496Z,97717.63
2023-11-02T08:40:32.116Z,97715.38
2023-11-02T08:42:58.922Z,97711.22
2023-11-02T08:45:25.621Z,97717.56
2023-11-02T08:47:52.601Z,97709.81
2023-11-02T08:50:20.377Z,97715.13
2023-11-02T08:52:47.003Z,97709.81
2023-11-02T08:55:13.658Z,97698.66
2023-11-02T08:57:40.692Z,97698.56
2023-11-02T09:00:08.975Z,97697.34
2023-11-02T09:02:35.755Z,97690.38
2023-11-02T09:05:02.460Z,97692.44
2023-11-02T09:07:30.228Z,97687.72
2023-11-02T09:09:56.887Z,97692.00
2023-11-02T09:12:23.659Z,97691.44
2023-11-02T09:14:50.308Z,97676.44
2023-11-02T09:17:16.997Z,97686.13
2023-11-02T09:19:44.932Z,97687.25
2023-11-02T09:22:12.312Z,97682.25
2023-11-02T09:24:39.589Z,97681.00
2023-11-02T09:27:06.300Z,97670.81
2023-11-02T09:29:32.947Z,97669.00
2023-11-02T09:32:03.953Z,97667.28
2023-11-02T09:34:32.416Z,97659.66
2023-11-02T09:36:59.516Z,97660.94
2023-11-02T09:39:26.239Z,97664.97
2023-11-02T09:41:52.944Z,97664.81
2023-11-02T09:44:20.758Z,97655.69
2023-11-02T09:46:47.422Z,97660.00
2023-11-02T09:49:14.234Z,97647.03
2023-11-02T09:51:42.100Z,97633.63
2023-11-02T09:54:09.333Z,97640.25
2023-11-02T09:56:36.545Z,97626.75
2023-11-02T09:59:04.422Z,97623.78
2023-11-02T10:01:31.778Z,97614.06
2023-11-02T10:03:58.410Z,97610.53
2023-11-02T10:06:26.222Z,97609.38
2023-11-02T10:08:52.863Z,97596.16
2023-11-02T10:11:21.048Z,97597.53
2023-11-02T10:13:50.836Z,97605.25
2023-11-02T10:16:24.984Z,97600.53
2023-11-02T10:18:52.263Z,97598.00
2023-11-02T10:21:20.522Z,97591.94
2023-11-02T10:23:52.722Z,97587.28
2023-11-02T10:26:19.870Z,97588.88
2023-11-02T10:28:46.766Z,97597.81
2023-11-02T10:31:18.489Z,97580.78
2023-11-02T10:33:49.578Z,97577.78
2023-11-02T10:36:18.224Z,97579.69
2023-11-02T10:38:48.986Z,97555.81
2023-11-02T10:41:19.571Z,97530.97
2023-11-02T10:43:47.808Z,97537.06
2023-11-02T10:46:16.873Z,97529.00
2023-11-02T10:48:45.095Z,97505.06
2023-11-02T10:51:22.215Z,97525.31
2023-11-02T10:54:07.208Z,97520.19
2023-11-02T10:56:44.136Z,97508.19
2023-11-02T10:59:15.567Z,97496.50
2023-11-02T11:01:42.913Z,97502.06
2023-11-02T11:04:11.533Z,97491.84
2023-11-02T11:06:46.149Z,97493.16
2023-11-02T11:09:14.473Z,97478.81
2023-11-02T11:11:41.377Z,97480.25
2023-11-02T11:14:09.883Z,97479.56
2023-11-02T11:16:41.783Z,97478.59
2023-11-02T11:19:09.500Z,97484.94
2023-11-02T11:21:40.424Z,97488.91
2023-11-02T11:24:18.055Z,97467.22
2023-11-02T11:26:51.431Z,97461.31
2023-11-02T11:29:36.761Z,97449.88
2023-11-02T11:32:05.222Z,97448.00
2023-11-02T11:34:57.143Z,97455.78
2023-11-02T11:37:59.144Z,97451.75
2023-11-02T11:40:26.087Z,97459.06
2023-11-02T11:43:12.044Z,97456.66
2023-11-02T11:45:44.706Z,97451.25
2023-11-02T11:48:12.652Z,97436.66
2023-11-02T11:50:41.619Z,97438.50
2023-11-02T11:53:11.979Z,97433.75
2023-11-02T11:55:39.383Z,97434.66
2023-11-02T11:58:09.690Z,97438.19
2023-11-02T12:00:56.768Z,97442.09
2023-11-02T12:03:38.380Z,97421.81
2023-11-02T12:06:11.966Z,97418.41
2023-11-02T12:08:51.508Z,97402.59
2023-11-02T12:11:26.169Z,97402.72
2023-11-02T12:13:58.959Z,97396.25
2023-11-02T12:16:33.317Z,97403.88
2023-11-02T12:19:00.693Z,97402.97
2023-11-02T12:21:27.621Z,97386.88
2023-11-02T12:23:55.688Z,97398.91
2023-11-02T12:26:25.467Z,97389.84
2023-11-02T12:28:56.540Z,97383.31
2023-11-02T12:31:36.642Z,97378.06
2023-11-02T12:34:05.154Z,97364.38
2023-11-02T12:36:32.388Z,97373.59
2023-11-02T12:38:59.665Z,97360.88
2023-11-02T12:41:38.407Z,97338.72
2023-11-02T12:44:08.663Z,97334.06
2023-11-02T12:47:06.890Z,97345.88
2023-11-02T12:49:34.364Z,97342.19
2023-11-02T12:52:08.859Z,97336.31
2023-11-02T12:54:37.560Z,97339.09
2023-11-02T12:57:07.286Z,97335.09
2023-11-02T12:59:39.794Z,97334.91
2023-11-02T13:02:07.626Z,97340.59
2023-11-02T13:04:59.721Z,97328.84
2023-11-02T13:07:29.262Z,97320.19
2023-11-02T13:10:18.523Z,97311.53
2023-11-02T13:12:46.179Z,97321.88
2023-11-02T13:15:14.204Z,97337.25
2023-11-02T13:17:44.287Z,97339.25
2023-11-02T13:20:13.532Z,97330.13
2023-11-02T13:22:40.150Z,97332.41
2023-11-02T13:25:10.019Z,97330.88
2023-11-02T13:27:37.268Z,97334.22
2023-11-02T13:30:06.007Z,97334.34
2023-11-02T13:32:32.709Z,97335.25
2023-11-02T13:35:00.077Z,97330.25
2023-11-02T13:37:28.016Z,97335.47
2023-11-02T13:39:54.823Z,97339.59
2023-11-02T13:42:22.949Z,97342.06
2023-11-02T13:44:49.581Z,97346.22
2023-11-02T13:47:16.243Z,97346.84
2023-11-02T13:49:43.220Z,97335.72
2023-11-02T13:52:09.880Z,97332.31
2023-11-02T13:54:36.580Z,97329.78
2023-11-02T13:57:03.392Z,97335.47
2023-11-02T13:59:31.883Z,97324.03
2023-11-02T14:01:58.874Z,97321.25
2023-11-02T14:04:26.234Z,97329.13
2023-11-02T14:06:57.222Z,97336.34
2023-11-02T14:09:25.763Z,97324.59
2023-11-02T14:11:52.800Z,97329.16
2023-11-02T14:14:19.712Z,97309.50
2023-11-02T14:16:46.324Z,97312.75
2023-11-02T14:19:13.757Z,97314.22
2023-11-02T14:21:40.632Z,97314.00
2023-11-02T14:24:08.640Z,97299.94
2023-11-02T14:26:35.670Z,97295.72
2023-11-02T14:29:02.266Z,97286.16
2023-11-02T14:31:29.912Z,97287.84
2023-11-02T14:33:56.668Z,97288.72
2023-11-02T14:36:25.532Z,97280.31
2023-11-02T14:38:54.360Z,97300.06
2023-11-02T14:41:22.004Z,97295.19
2023-11-02T14:43:48.604Z,97290.41
2023-11-02T14:46:15.353Z,97292.28
2023-11-02T14:48:42.405Z,97291.50
2023-11-02T14:51:09.121Z,97309.06
2023-11-02T14:53:35.799Z,97306.28
2023-11-02T14:56:02.477Z,97306.72
2023-11-02T14:58:29.213Z,97305.63
2023-11-02T15:00:55.941Z,97301.75
2023-11-02T15:03:22.692Z,97298.00
2023-11-02T15:05:50.567Z,97299.53
2023-11-02T15:08:19.206Z,97310.66
2023-11-02T15:10:45.959Z,97303.78
2023-11-02T15:13:12.707Z,97287.31
2023-11-02T15:15:39.411Z,97283.13
2023-11-02T15:18:07.223Z,97279.22
2023-11-02T15:20:40.082Z,97277.03
2023-11-02T15:23:07.635Z,97270.38
2023-11-02T15:25:35.046Z,97281.59
2023-11-02T15:28:02.304Z,97269.25
2023-11-02T15:30:29.083Z,97266.81
2023-11-02T15:32:55.752Z,97255.59
2023-11-02T15:35:22.449Z,97262.34
2023-11-02T15:37:49.028Z,97250.50
2023-11-02T15:40:15.701Z,97248.63
2023-11-02T15:42:42.396Z,97245.41
2023-11-02T15:45:10.775Z,97247.84
2023-11-02T15:47:38.722Z,97232.41
2023-11-02T15:50:09.236Z,97241.09
2023-11-02T15:52:44.585Z,97235.66
2023-11-02T15:55:12.005Z,97237.78
2023-11-02T15:57:43.592Z,97226.00
2023-11-02T16:00:18.036Z,97232.44
2023-11-02T16:02:45.358Z,97231.31
2023-11-02T16:05:12.019Z,97230.75
2023-11-02T16:07:38.739Z,97231.44
2023-11-02T16:10:06.706Z,97227.09
2023-11-02T16:12:33.427Z,97230.91
2023-11-02T16:15:00.829Z,97225.34
2023-11-02T16:17:27.632Z,97223.47
2023-11-02T16:19:55.232Z,97232.97
2023-11-02T16:22:23.427Z,97226.34
2023-11-02T16:24:50.042Z,97212.47
2023-11-02T16:27:16.710Z,97212.47
2023-11-02T16:29:43.702Z,97208.50
2023-11-02T16:32:10.385Z,97205.81
2023-11-02T16:34:42.328Z,97198.53
2023-11-02T16:37:12.183Z,97201.63
2023-11-02T16:39:44.123Z,97206.28
2023-11-02T16:42:11.350Z,97204.50
2023-11-02T16:44:38.028Z,97219.47
2023-11-02T16:47:05.055Z,97214.69
2023-11-02T16:49:31.839Z,97209.69
2023-11-02T16:51:58.717Z,97194.72
2023-11-02T16:54:25.783Z,97200.94
2023-11-02T16:56:52.856Z,97201.25
2023-11-02T16:59:21.535Z,97208.16
2023-11-02T17:01:48.326Z,97212.25
2023-11-02T17:04:15.502Z,97197.72
2023-11-02T17:06:43.735Z,97203.81
2023-11-02T17:09:10.587Z,97197.88
2023-11-02T17:11:38.832Z,97199.75
2023-11-02T17:14:06.868Z,97201.84
2023-11-02T17:16:33.744Z,97194.53
2023-11-02T17:19:00.465Z,97195.44
2023-11-02T17:21:27.670Z,97199.53
2023-11-02T17:23:55.549Z,97198.75
2023-11-02T17:26:23.220Z,97201.28
2023-11-02T17:28:49.935Z,97207.63
2023-11-02T17:31:16.582Z,97206.41
2023-11-02T17:33:45.360Z,97202.06
2023-11-02T17:36:12.967Z,97193.75
2023-11-02T17:38:40.192Z,97194.97
2023-11-02T17:41:07.699Z,97190.34
2023-11-02T17:43:35.543Z,97183.88
2023-11-02T17:46:04.489Z,97176.47
2023-11-02T17:48:31.340Z,97175.69
2023-11-02T17:50:58.158Z,97177.69
2023-11-02T17:53:24.848Z,97173.50
2023-11-02T17:55:51.892Z,97167.94
2023-11-02T17:58:18.551Z,97161.72
2023-11-02T18:00:45.159Z,97151.00
2023-11-02T18:03:15.089Z,97149.34
2023-11-02T18:05:41.887Z,97137.25
2023-11-02T18:08:08.596Z,97138.13
2023-11-02T18:10:36.309Z,97139.78
2023-11-02T18:13:03.424Z,97139.13
2023-11-02T18:15:30.245Z,97119.28
2023-11-02T18:17:57.068Z,97130.50
2023-11-02T18:20:24.027Z,97116.19
2023-11-02T18:22:50.700Z,97120.72
2023-11-02T18:25:19.538Z,97123.31
2023-11-02T18:27:46.610Z,97108.34
2023-11-02T18:30:14.190Z,97091.59
2023-11-02T18:32:41.422Z,97090.06
2023-11-02T18:35:10.130Z,97080.50
2023-11-02T18:37:38.516Z,97071.66
2023-11-02T18:40:06.259Z,97080.41
2023-11-02T18:42:33.140Z,97074.97
2023-11-02T18:44:59.916Z,97074.66
2023-11-02T18:47:26.547Z,97068.47
2023-11-02T18:49:55.971Z,97076.44
2023-11-02T18:52:23.054Z,97072.91
2023-11-02T18:54:57.425Z,97068.91
2023-11-02T18:57:24.693Z,97056.72
2023-11-02T18:59:51.663Z,97040.09
2023-11-02T19:02:19.960Z,97042.53
2023-11-02T19:04:47.405Z,97055.59
2023-11-02T19:07:17.399Z,97066.31
2023-11-02T19:09:45.908Z,97047.06
2023-11-02T19:12:13.513Z,97047.72
2023-11-02T19:14:41.383Z,97054.91
2023-11-02T19:17:08.411Z,97062.91
2023-11-02T19:19:36.340Z,97050.59
2023-11-02T19:22:03.235Z,97041.19
2023-11-02T19:24:31.171Z,97020.69
2023-11-02T19:26:57.868Z,97040.53
2023-11-02T19:29:24.516Z,97036.97
2023-11-02T19:31:52.416Z,97022.34
2023-11-02T19:34:23.308Z,97015.59
2023-11-02T19:36:52.033Z,97002.66
2023-11-02T19:39:19.979Z,97022.91
2023-11-02T19:41:46.787Z,96995.59
2023-11-02T19:44:13.640Z,96992.13
2023-11-02T19:46:41.303Z,96996.69
2023-11-02T19:49:08.288Z,96992.03
2023-11-02T19:51:35.471Z,96967.38
2023-11-02T19:54:02.300Z,96962.72
2023-11-02T19:56:28.954Z,96965.81
2023-11-02T19:58:55.626Z,96960.59
2023-11-02T20:01:22.356Z,96971.66
2023-11-02T20:03:49.947Z,96971.66
2023-11-02T20:06:18.065Z,96962.16
2023-11-02T20:08:44.783Z,96940.03
2023-11-02T20:11:11.659Z,96946.09
2023-11-02T20:13:38.736Z,96965.47
2023-11-02T20:16:05.581Z,96972.13
2023-11-02T20:18:34.365Z,96969.25
2023-11-02T20:21:01.634Z,96988.25
2023-11-02T20:23:28.403Z,96987.38
2023-11-02T20:25:56.296Z,96978.66
2023-11-02T20:28:23.631Z,96975.44
2023-11-02T20:30:50.716Z,96961.59
2023-11-02T20:33:18.851Z,96967.13
2023-11-02T20:35:46.579Z,96962.81
2023-11-02T20:38:13.323Z,96945.31
2023-11-02T20:40:40.047Z,96938.13
2023-11-02T20:43:08.534Z,96926.94
2023-11-02T20:45:35.230Z,96910.41
2023-11-02T20:48:02.027Z,96903.00
2023-11-02T20:50:28.704Z,96903.38
2023-11-02T20:52:55.511Z,96903.50
2023-11-02T20:55:22.113Z,96886.88
2023-11-02T20:57:48.809Z,96860.22
2023-11-02T21:00:21.830Z,96856.91
2023-11-02T21:02:49.772Z,96848.13
2023-11-02T21:05:16.542Z,96841.28
2023-11-02T21:07:43.399Z,96843.28
2023-11-02T21:10:10.470Z,96837.19
2023-11-02T21:12:37.343Z,96813.63
2023-11-02T21:15:05.556Z,96843.84
2023-11-02T21:17:32.812Z,96859.69
2023-11-02T21:19:59.674Z,96861.44
2023-11-02T21:22:26.367Z,96868.97
2023-11-02T21:24:55.219Z,96869.50
2023-11-02T21:27:22.688Z,96866.59
2023-11-02T21:29:49.304Z,96862.91
2023-11-02T21:32:15.975Z,96844.06
2023-11-02T21:34:43.257Z,96841.75
2023-11-02T21:37:10.678Z,96835.22
2023-11-02T21:39:38.002Z,96861.44
2023-11-02T21:42:05.680Z,96867.56
2023-11-02T21:44:35.296Z,96876.84
2023-11-02T21:47:04.331Z,96885.63
2023-11-02T21:49:31.960Z,96879.88
2023-11-02T21:51:59.247Z,96865.97
2023-11-02T21:54:26.529Z,96872.41
2023-11-02T21:56:53.716Z,96858.44
2023-11-02T21:59:20.321Z,96866.78
2023-11-02T22:01:46.955Z,96854.78
2023-11-02T22:04:14.467Z,96842.03
2023-11-02T22:06:47.602Z,96822.25
2023-11-02T22:09:15.779Z,96814.03
2023-11-02T22:11:42.446Z,96808.56
2023-11-02T22:14:09.405Z,96810.88
2023-11-02T22:16:36.121Z,96808.44
2023-11-02T22:19:02.776Z,96834.63
2023-11-02T22:21:29.761Z,96838.34
2023-11-02T22:23:56.394Z,96819.47
2023-11-02T22:26:27.394Z,96819.91
2023-11-02T22:28:54.769Z,96819.25
2023-11-02T22:31:27.990Z,96814.97
2023-11-02T22:33:55.216Z,96833.91
2023-11-02T22:36:22.575Z,96818.75
2023-11-02T22:38:49.312Z,96826.00
2023-11-02T22:41:16.169Z,96839.53
2023-11-02T22:43:42.769Z,96851.25
2023-11-02T22:46:09.611Z,96859.84
2023-11-02T22:48:38.145Z,96866.19
2023-11-02T22:51:05.921Z,96867.28
2023-11-02T22:53:35.529Z,96864.13
2023-11-02T22:56:08.591Z,96860.97
2023-11-02T22:58:35.273Z,96844.91
2023-11-02T23:01:02.002Z,96829.53
2023-11-02T23:03:29.621Z,96832.28
2023-11-02T23:05:57.971Z,96827.34
2023-11-02T23:08:24.597Z,96818.84
2023-11-02T23:10:52.597Z,96815.38
2023-11-02T23:13:19.267Z,96818.22
2023-11-02T23:15:45.978Z,96799.09
2023-11-02T23:18:12.760Z,96801.41
2023-11-02T23:20:39.405Z,96806.31
2023-11-02T23:23:08.567Z,96813.44
2023-11-02T23:25:35.196Z,96808.19
2023-11-02T23:28:01.904Z,96805.53
2023-11-02T23:30:28.827Z,96798.00
2023-11-02T23:32:55.446Z,96788.00
2023-11-02T23:35:22.517Z,96791.22
2023-11-02T23:37:49.171Z,96789.84
2023-11-02T23:40:19.873Z,96792.41
2023-11-02T23:42:47.729Z,96785.81
2023-11-02T23:45:15.328Z,96772.25
2023-11-02T23:47:42.002Z,96765.91
2023-11-02T23:50:09.018Z,96757.19
2023-11-02T23:52:35.833Z,96751.34
2023-11-02T23:55:05.422Z,96749.63
2023-11-02T23:57:32.085Z,96742.81
2023-11-02T23:59:58.723Z,96750.69
